createdAt,value
2019-02-12T00:01:46.772Z,101650.86
2019-02-12T00:04:13.517Z,101648.32
2019-02-12T00:06:40.677Z,101655.97
2019-02-12T00:09:09.895Z,101656.84
2019-02-12T00:11:36.746Z,101653.83
2019-02-12T00:14:03.488Z,101667.94
2019-02-12T00:16:30.247Z,101669.28
2019-02-12T00:18:57.004Z,101675.67
2019-02-12T00:21:23.880Z,101674.84
2019-02-12T00:23:50.833Z,101686.75
2019-02-12T00:26:17.704Z,101691.05
2019-02-12T00:28:44.649Z,101696.54
2019-02-12T00:31:11.567Z,101700.77
2019-02-12T00:33:38.543Z,101709.62
2019-02-12T00:36:05.393Z,101714.65
2019-02-12T00:38:32.246Z,101712.33
2019-02-12T00:40:59.211Z,101714.78
2019-02-12T00:43:26.208Z,101715.01
2019-02-12T00:45:53.081Z,101710.56
2019-02-12T00:48:19.931Z,101708.14
2019-02-12T00:50:46.793Z,101721.17
2019-02-12T00:53:13.652Z,101708.11
2019-02-12T00:55:40.402Z,101704.25
2019-02-12T00:58:07.282Z,101699.94
2019-02-12T01:00:34.158Z,101699.34
2019-02-12T01:03:00.941Z,101697.94
2019-02-12T01:05:27.810Z,101696.77
2019-02-12T01:07:54.690Z,101692.56
2019-02-12T01:10:21.596Z,101690.88
2019-02-12T01:12:48.460Z,101694.05
2019-02-12T01:15:15.247Z,101695.27
2019-02-12T01:17:42.119Z,101699.05
2019-02-12T01:20:10.589Z,101699.64
2019-02-12T01:22:37.523Z,101704.78
2019-02-12T01:25:04.793Z,101710.47
2019-02-12T01:27:33.582Z,101708.51
2019-02-12T01:30:00.487Z,101708.30
2019-02-12T01:32:27.269Z,101710.94
2019-02-12T01:34:54.247Z,101720.81
2019-02-12T01:37:21.225Z,101729.47
2019-02-12T01:39:48.190Z,101732.17
2019-02-12T01:42:14.952Z,101741.59
2019-02-12T01:44:41.944Z,101741.55
2019-02-12T01:47:08.845Z,101741.57
2019-02-12T01:49:35.852Z,101746.22
2019-02-12T01:52:02.707Z,101748.76
2019-02-12T01:54:29.460Z,101755.66
2019-02-12T01:56:56.198Z,101753.58
2019-02-12T01:59:23.055Z,101752.73
2019-02-12T02:01:50.022Z,101755.75
2019-02-12T02:04:16.875Z,101753.62
2019-02-12T02:06:43.636Z,101758.76
2019-02-12T02:09:10.414Z,101752.75
2019-02-12T02:11:37.236Z,101747.18
2019-02-12T02:14:04.117Z,101741.56
2019-02-12T02:16:30.864Z,101742.34
2019-02-12T02:18:57.608Z,101743.42
2019-02-12T02:21:24.503Z,101738.45
2019-02-12T02:23:51.471Z,101743.57
2019-02-12T02:26:18.364Z,101740.55
2019-02-12T02:28:45.184Z,101742.71
2019-02-12T02:31:12.148Z,101738.45
2019-02-12T02:33:38.937Z,101750.89
2019-02-12T02:36:05.823Z,101738.79
2019-02-12T02:38:32.583Z,101738.41
2019-02-12T02:40:59.531Z,101756.89
2019-02-12T02:43:26.433Z,101756.63
2019-02-12T02:45:53.188Z,101754.41
2019-02-12T02:48:19.947Z,101763.83
2019-02-12T02:50:46.710Z,101758.17
2019-02-12T02:53:13.578Z,101762.04
2019-02-12T02:55:40.323Z,101762.08
2019-02-12T02:58:07.205Z,101766.52
2019-02-12T03:00:34.062Z,101767.84
2019-02-12T03:03:00.841Z,101766.31
2019-02-12T03:05:27.869Z,101768.42
2019-02-12T03:07:54.842Z,101767.34
2019-02-12T03:10:21.813Z,101770.13
2019-02-12T03:12:48.887Z,101778.02
2019-02-12T03:15:15.742Z,101768.34
2019-02-12T03:17:42.483Z,101769.80
2019-02-12T03:20:11.132Z,101776.09
2019-02-12T03:22:38.144Z,101770.25
2019-02-12T03:25:05.182Z,101771.15
2019-02-12T03:27:31.994Z,101774.69
2019-02-12T03:29:58.868Z,101781.16
2019-02-12T03:32:25.720Z,101778.95
2019-02-12T03:34:52.536Z,101780.22
2019-02-12T03:37:19.337Z,101786.09
2019-02-12T03:39:48.034Z,101802.72
2019-02-12T03:42:14.960Z,101801.92
2019-02-12T03:44:41.797Z,101806.67
2019-02-12T03:47:08.644Z,101813.09
2019-02-12T03:49:35.508Z,101814.31
2019-02-12T03:52:02.260Z,101806.57
2019-02-12T03:54:29.214Z,101814.61
2019-02-12T03:56:56.066Z,101813.09
2019-02-12T03:59:22.910Z,101813.26
2019-02-12T04:01:49.662Z,101811.42
2019-02-12T04:04:16.566Z,101819.68
2019-02-12T04:06:43.437Z,101816.79
2019-02-12T04:09:10.336Z,101817.58
2019-02-12T04:11:37.207Z,101824.17
2019-02-12T04:14:04.078Z,101822.59
2019-02-12T04:16:30.938Z,101816.83
2019-02-12T04:18:57.724Z,101825.06
2019-02-12T04:21:24.497Z,101827.25
2019-02-12T04:23:51.249Z,101835.01
2019-02-12T04:26:18.030Z,101835.55
2019-02-12T04:28:44.868Z,101830.28
2019-02-12T04:31:11.717Z,101838.36
2019-02-12T04:33:38.614Z,101828.57
2019-02-12T04:36:17.752Z,101823.41
2019-02-12T04:38:47.308Z,101832.02
2019-02-12T04:41:15.187Z,101820.28
2019-02-12T04:43:42.039Z,101815.54
2019-02-12T04:46:09.028Z,101804.73
2019-02-12T04:48:37.109Z,101800.97
2019-02-12T04:51:03.946Z,101814.47
2019-02-12T04:53:30.914Z,101814.34
2019-02-12T04:55:57.758Z,101819.16
2019-02-12T04:58:24.747Z,101815.41
2019-02-12T05:00:51.744Z,101821.48
2019-02-12T05:03:18.648Z,101826.53
2019-02-12T05:05:45.538Z,101833.87
2019-02-12T05:08:12.408Z,101833.92
2019-02-12T05:10:43.838Z,101824.95
2019-02-12T05:13:10.657Z,101831.31
2019-02-12T05:15:37.541Z,101842.17
2019-02-12T05:18:04.404Z,101831.45
2019-02-12T05:20:31.380Z,101840.47
2019-02-12T05:22:58.281Z,101838.56
2019-02-12T05:25:25.241Z,101834.98
2019-02-12T05:27:52.230Z,101843.23
2019-02-12T05:30:19.120Z,101847.32
2019-02-12T05:32:46.078Z,101839.22
2019-02-12T05:35:12.925Z,101840.72
2019-02-12T05:37:39.755Z,101838.16
2019-02-12T05:40:07.388Z,101847.37
2019-02-12T05:42:34.390Z,101848.48
2019-02-12T05:45:01.376Z,101844.38
2019-02-12T05:47:28.236Z,101848.27
2019-02-12T05:50:04.594Z,101852.24
2019-02-12T05:52:42.509Z,101850.99
2019-02-12T05:55:11.220Z,101847.43
2019-02-12T05:57:38.228Z,101848.81
2019-02-12T06:00:07.678Z,101845.45
2019-02-12T06:02:34.589Z,101837.88
2019-02-12T06:05:01.445Z,101848.68
2019-02-12T06:07:28.307Z,101847.56
2019-02-12T06:09:55.286Z,101842.83
2019-02-12T06:12:22.139Z,101844.36
2019-02-12T06:14:49.104Z,101845.06
2019-02-12T06:17:16.043Z,101851.32
2019-02-12T06:19:43.030Z,101844.48
2019-02-12T06:22:09.873Z,101854.34
2019-02-12T06:24:36.847Z,101858.95
2019-02-12T06:27:06.018Z,101860.57
2019-02-12T06:29:32.888Z,101866.97
2019-02-12T06:31:59.736Z,101867.79
2019-02-12T06:34:26.596Z,101870.47
2019-02-12T06:36:53.456Z,101867.80
2019-02-12T06:39:20.444Z,101865.11
2019-02-12T06:41:47.199Z,101870.38
2019-02-12T06:44:14.048Z,101872.14
2019-02-12T06:46:40.924Z,101876.40
2019-02-12T06:49:07.944Z,101875.97
2019-02-12T06:51:34.898Z,101878.09
2019-02-12T06:54:01.719Z,101879.75
2019-02-12T06:56:28.578Z,101884.36
2019-02-12T06:58:55.423Z,101895.78
2019-02-12T07:01:22.594Z,101891.55
2019-02-12T07:04:00.997Z,101893.99
2019-02-12T07:06:53.288Z,101898.04
2019-02-12T07:09:25.394Z,101904.53
2019-02-12T07:12:36.211Z,101904.14
2019-02-12T07:15:34.163Z,101906.67
2019-02-12T07:18:44.503Z,101907.92
2019-02-12T07:21:35.670Z,101915.13
2019-02-12T07:24:33.116Z,101914.63
2019-02-12T07:27:51.366Z,101912.30
2019-02-12T07:31:12.146Z,101922.55
2019-02-12T07:34:18.323Z,101928.63
2019-02-12T07:37:36.041Z,101934.30
2019-02-12T07:40:38.662Z,101939.45
2019-02-12T07:44:05.236Z,101942.37
2019-02-12T07:47:35.388Z,101947.94
2019-02-12T07:50:14.973Z,101960.34
2019-02-12T07:53:13.753Z,101958.53
2019-02-12T07:56:26.141Z,101962.66
2019-02-12T07:59:34.874Z,101962.30
2019-02-12T08:02:45.888Z,101973.23
2019-02-12T08:05:46.877Z,101971.52
2019-02-12T08:09:10.852Z,101981.28
2019-02-12T08:11:50.391Z,101981.38
2019-02-12T08:14:44.154Z,101983.95
2019-02-12T08:17:39.663Z,101987.80
2019-02-12T08:20:38.673Z,101989.20
2019-02-12T08:23:46.360Z,101995.23
2019-02-12T08:26:43.796Z,101993.94
2019-02-12T08:29:32.441Z,101986.70
2019-02-12T08:32:30.813Z,101990.61
2019-02-12T08:35:57.536Z,102005.14
2019-02-12T08:39:12.863Z,101998.53
2019-02-12T08:42:16.283Z,102007.03
2019-02-12T08:45:34.385Z,102006.05
2019-02-12T08:48:33.512Z,102005.10
2019-02-12T08:51:36.097Z,102007.38
2019-02-12T08:54:31.314Z,102010.01
2019-02-12T08:57:36.356Z,102013.68
2019-02-12T09:00:20.878Z,102019.95
2019-02-12T09:03:28.592Z,102020.41
2019-02-12T09:06:16.107Z,102021.67
2019-02-12T09:09:31.124Z,102028.42
2019-02-12T09:12:34.482Z,102032.75
2019-02-12T09:15:43.790Z,102038.58
2019-02-12T09:18:51.822Z,102042.70
2019-02-12T09:21:54.007Z,102041.92
2019-02-12T09:24:45.844Z,102034.95
2019-02-12T09:27:22.150Z,102044.16
2019-02-12T09:30:46.099Z,102047.23
2019-02-12T09:33:47.664Z,102052.12
2019-02-12T09:37:11.644Z,102052.44
2019-02-12T09:40:19.261Z,102047.67
2019-02-12T09:43:13.451Z,102042.56
2019-02-12T09:46:04.628Z,102049.22
2019-02-12T09:48:58.849Z,102038.97
2019-02-12T09:51:42.391Z,102042.75
2019-02-12T09:54:32.997Z,102051.34
2019-02-12T09:57:15.222Z,102054.11
2019-02-12T10:00:13.859Z,102058.16
2019-02-12T10:03:22.965Z,102064.92
2019-02-12T10:06:21.957Z,102063.27
2019-02-12T10:09:12.506Z,102070.70
2019-02-12T10:12:11.990Z,102060.39
2019-02-12T10:15:13.467Z,102053.97
2019-02-12T10:18:22.334Z,102068.66
2019-02-12T10:21:06.494Z,102074.02
2019-02-12T10:24:24.267Z,102074.22
2019-02-12T10:27:20.594Z,102086.85
2019-02-12T10:30:03.622Z,102086.78
2019-02-12T10:32:29.813Z,102091.75
2019-02-12T10:34:56.778Z,102093.59
2019-02-12T10:37:23.641Z,102093.26
2019-02-12T10:39:50.550Z,102097.81
2019-02-12T10:42:17.398Z,102102.05
2019-02-12T10:44:44.389Z,102103.56
2019-02-12T10:47:11.382Z,102101.07
2019-02-12T10:49:38.241Z,102101.50
2019-02-12T10:52:04.980Z,102105.79
2019-02-12T10:54:31.852Z,102106.03
2019-02-12T10:56:58.714Z,102108.48
2019-02-12T10:59:25.645Z,102109.41
2019-02-12T11:01:52.702Z,102109.50
2019-02-12T11:04:19.545Z,102098.88
2019-02-12T11:06:47.692Z,102108.11
2019-02-12T11:09:14.469Z,102106.96
2019-02-12T11:11:41.312Z,102111.30
2019-02-12T11:14:08.152Z,102118.59
2019-02-12T11:16:35.068Z,102106.64
2019-02-12T11:19:01.924Z,102115.42
2019-02-12T11:21:28.667Z,102118.09
2019-02-12T11:23:56.418Z,102105.59
2019-02-12T11:26:23.283Z,102117.94
2019-02-12T11:28:50.259Z,102113.28
2019-02-12T11:31:17.151Z,102117.27
2019-02-12T11:33:44.131Z,102117.00
2019-02-12T11:36:10.967Z,102114.02
2019-02-12T11:38:37.884Z,102119.03
2019-02-12T11:41:04.729Z,102105.67
2019-02-12T11:43:33.484Z,102104.56
2019-02-12T11:46:00.415Z,102105.34
2019-02-12T11:48:28.379Z,102108.23
2019-02-12T11:50:55.361Z,102106.12
2019-02-12T11:53:22.420Z,102105.69
2019-02-12T11:55:49.293Z,102104.23
2019-02-12T11:58:18.049Z,102102.26
2019-02-12T12:00:50.114Z,102099.52
2019-02-12T12:03:18.861Z,102097.92
2019-02-12T12:05:46.857Z,102094.66
2019-02-12T12:08:13.714Z,102081.97
2019-02-12T12:10:40.462Z,102089.38
2019-02-12T12:13:07.311Z,102092.80
2019-02-12T12:15:34.370Z,102088.69
2019-02-12T12:18:01.308Z,102091.81
2019-02-12T12:20:28.302Z,102091.70
2019-02-12T12:22:55.308Z,102086.27
2019-02-12T12:25:22.133Z,102084.56
2019-02-12T12:27:49.134Z,102089.03
2019-02-12T12:30:16.130Z,102089.42
2019-02-12T12:32:43.102Z,102084.05
2019-02-12T12:35:10.056Z,102088.81
2019-02-12T12:37:37.112Z,102086.63
2019-02-12T12:40:05.499Z,102085.14
2019-02-12T12:42:32.295Z,102084.48
2019-02-12T12:44:59.171Z,102082.02
2019-02-12T12:47:26.166Z,102080.67
2019-02-12T12:49:53.167Z,102080.44
2019-02-12T12:52:20.082Z,102079.84
2019-02-12T12:54:47.129Z,102077.81
2019-02-12T12:57:16.298Z,102084.48
2019-02-12T12:59:43.171Z,102086.64
2019-02-12T13:02:10.156Z,102086.52
2019-02-12T13:04:37.026Z,102081.75
2019-02-12T13:07:05.853Z,102088.51
2019-02-12T13:10:22.067Z,102079.88
2019-02-12T13:12:52.016Z,102083.95
2019-02-12T13:15:19.052Z,102079.89
2019-02-12T13:17:46.026Z,102080.80
2019-02-12T13:20:13.241Z,102082.17
2019-02-12T13:22:41.219Z,102091.19
2019-02-12T13:25:10.058Z,102090.38
2019-02-12T13:27:36.982Z,102086.41
2019-02-12T13:30:05.399Z,102083.53
2019-02-12T13:32:32.511Z,102085.10
2019-02-12T13:34:59.531Z,102083.59
2019-02-12T13:37:27.138Z,102087.53
2019-02-12T13:40:18.657Z,102088.42
2019-02-12T13:42:59.178Z,102090.50
2019-02-12T13:45:27.577Z,102088.33
2019-02-12T13:47:54.427Z,102082.20
2019-02-12T13:50:21.315Z,102081.77
2019-02-12T13:52:48.317Z,102087.77
2019-02-12T13:55:17.229Z,102088.96
2019-02-12T13:57:43.822Z,102083.41
2019-02-12T14:00:12.075Z,102096.12
2019-02-12T14:02:39.020Z,102087.55
2019-02-12T14:05:09.002Z,102086.81
2019-02-12T14:07:35.849Z,102095.05
2019-02-12T14:10:03.514Z,102087.87
2019-02-12T14:12:30.410Z,102089.73
2019-02-12T14:14:57.200Z,102085.69
2019-02-12T14:17:24.382Z,102084.09
2019-02-12T14:19:51.366Z,102084.14
2019-02-12T14:22:18.116Z,102089.86
2019-02-12T14:24:45.122Z,102091.66
2019-02-12T14:27:12.021Z,102086.62
2019-02-12T14:29:38.768Z,102088.88
2019-02-12T14:32:05.498Z,102089.67
2019-02-12T14:34:32.361Z,102097.95
2019-02-12T14:36:59.165Z,102094.90
2019-02-12T14:39:26.197Z,102091.72
2019-02-12T14:41:52.976Z,102095.19
2019-02-12T14:44:19.764Z,102093.41
2019-02-12T14:46:46.613Z,102088.41
2019-02-12T14:49:13.341Z,102094.22
2019-02-12T14:51:40.215Z,102090.32
2019-02-12T14:54:09.375Z,102092.55
2019-02-12T14:56:36.169Z,102093.52
2019-02-12T14:59:03.069Z,102095.76
2019-02-12T15:01:29.924Z,102096.73
2019-02-12T15:03:56.839Z,102097.84
2019-02-12T15:06:23.734Z,102094.53
2019-02-12T15:08:50.686Z,102097.47
2019-02-12T15:11:17.541Z,102091.99
2019-02-12T15:13:44.416Z,102101.84
2019-02-12T15:16:21.353Z,102095.77
2019-02-12T15:18:48.339Z,102096.86
2019-02-12T15:21:15.310Z,102093.12
2019-02-12T15:23:42.160Z,102086.75
2019-02-12T15:26:09.166Z,102089.62
2019-02-12T15:28:36.160Z,102088.14
2019-02-12T15:31:03.038Z,102091.23
2019-02-12T15:33:30.019Z,102095.23
2019-02-12T15:35:56.860Z,102097.87
2019-02-12T15:38:23.858Z,102097.91
2019-02-12T15:40:50.606Z,102103.81
2019-02-12T15:43:19.477Z,102099.61
2019-02-12T15:45:47.154Z,102104.17
2019-02-12T15:48:14.040Z,102106.63
2019-02-12T15:50:41.013Z,102096.44
2019-02-12T15:53:14.220Z,102101.73
2019-02-12T15:55:51.321Z,102104.06
2019-02-12T15:58:19.354Z,102104.61
2019-02-12T16:00:46.339Z,102107.69
2019-02-12T16:03:13.299Z,102101.45
2019-02-12T16:05:40.186Z,102111.44
2019-02-12T16:08:07.705Z,102105.19
2019-02-12T16:10:37.526Z,102104.42
2019-02-12T16:13:04.894Z,102113.47
2019-02-12T16:15:31.759Z,102102.85
2019-02-12T16:18:00.297Z,102115.33
2019-02-12T16:20:29.048Z,102115.89
2019-02-12T16:22:56.441Z,102121.00
2019-02-12T16:25:23.427Z,102124.49
2019-02-12T16:27:50.457Z,102126.50
2019-02-12T16:30:17.333Z,102128.72
2019-02-12T16:32:44.394Z,102126.77
2019-02-12T16:35:12.293Z,102138.76
2019-02-12T16:37:39.269Z,102141.41
2019-02-12T16:40:07.689Z,102145.47
2019-02-12T16:42:34.738Z,102145.89
2019-02-12T16:45:01.837Z,102151.61
2019-02-12T16:47:28.804Z,102159.56
2019-02-12T16:49:55.803Z,102161.55
2019-02-12T16:52:59.604Z,102156.75
2019-02-12T16:55:36.387Z,102159.58
2019-02-12T16:58:03.901Z,102164.17
2019-02-12T17:00:30.638Z,102158.83
2019-02-12T17:02:57.668Z,102158.42
2019-02-12T17:05:24.615Z,102158.68
2019-02-12T17:07:51.873Z,102161.61
2019-02-12T17:10:18.848Z,102171.14
2019-02-12T17:12:45.599Z,102171.94
2019-02-12T17:15:12.463Z,102169.70
2019-02-12T17:17:39.541Z,102172.66
2019-02-12T17:20:09.576Z,102176.67
2019-02-12T17:22:38.203Z,102183.17
2019-02-12T17:25:06.974Z,102186.14
2019-02-12T17:27:35.826Z,102184.70
2019-02-12T17:30:06.016Z,102192.66
2019-02-12T17:32:33.158Z,102194.00
2019-02-12T17:35:01.684Z,102196.75
2019-02-12T17:37:29.020Z,102196.98
2019-02-12T17:39:55.850Z,102196.45
2019-02-12T17:42:22.722Z,102195.06
2019-02-12T17:44:49.582Z,102196.04
2019-02-12T17:47:16.554Z,102196.89
2019-02-12T17:49:48.895Z,102194.41
2019-02-12T17:52:15.853Z,102196.92
2019-02-12T17:54:42.767Z,102198.92
2019-02-12T17:57:09.604Z,102206.98
2019-02-12T17:59:37.683Z,102209.59
2019-02-12T18:02:04.728Z,102211.80
2019-02-12T18:04:31.712Z,102212.38
2019-02-12T18:06:59.707Z,102215.48
2019-02-12T18:09:26.580Z,102211.72
2019-02-12T18:11:53.437Z,102212.63
2019-02-12T18:14:20.293Z,102217.75
2019-02-12T18:16:47.190Z,102206.50
2019-02-12T18:19:14.151Z,102217.66
2019-02-12T18:21:41.013Z,102223.75
2019-02-12T18:24:08.040Z,102224.27
2019-02-12T18:26:34.802Z,102226.82
2019-02-12T18:29:01.681Z,102232.45
2019-02-12T18:31:28.623Z,102229.47
2019-02-12T18:33:55.486Z,102229.52
2019-02-12T18:36:22.451Z,102231.30
2019-02-12T18:38:49.447Z,102227.90
2019-02-12T18:41:16.562Z,102231.75
2019-02-12T18:43:47.322Z,102235.59
2019-02-12T18:46:14.299Z,102234.75
2019-02-12T18:48:42.252Z,102229.25
2019-02-12T18:51:09.227Z,102229.71
2019-02-12T18:53:35.974Z,102230.55
2019-02-12T18:56:02.842Z,102233.52
2019-02-12T18:58:29.800Z,102238.66
2019-02-12T19:00:56.992Z,102235.19
2019-02-12T19:03:23.970Z,102227.94
2019-02-12T19:05:51.275Z,102235.30
2019-02-12T19:08:18.275Z,102231.52
2019-02-12T19:10:45.368Z,102243.53
2019-02-12T19:13:12.153Z,102240.52
2019-02-12T19:15:39.663Z,102244.41
2019-02-12T19:18:10.385Z,102242.34
2019-02-12T19:20:37.632Z,102242.34
2019-02-12T19:23:04.967Z,102241.50
2019-02-12T19:25:31.929Z,102243.61
2019-02-12T19:27:58.899Z,102251.31
2019-02-12T19:30:25.911Z,102248.77
2019-02-12T19:32:52.764Z,102254.77
2019-02-12T19:35:19.650Z,102257.34
2019-02-12T19:37:46.967Z,102259.45
2019-02-12T19:40:13.943Z,102255.61
2019-02-12T19:42:40.852Z,102260.31
2019-02-12T19:45:08.742Z,102250.06
2019-02-12T19:47:35.798Z,102252.62
2019-02-12T19:50:02.819Z,102244.52
2019-02-12T19:52:30.356Z,102246.62
2019-02-12T19:54:57.334Z,102247.92
2019-02-12T19:57:24.202Z,102256.48
2019-02-12T19:59:51.223Z,102261.16
2019-02-12T20:02:18.185Z,102264.16
2019-02-12T20:04:45.288Z,102258.17
2019-02-12T20:07:12.082Z,102269.30
2019-02-12T20:09:38.943Z,102267.16
2019-02-12T20:12:05.835Z,102271.84
2019-02-12T20:14:32.780Z,102268.39
2019-02-12T20:16:59.620Z,102271.39
2019-02-12T20:19:26.605Z,102271.38
2019-02-12T20:21:53.797Z,102269.61
2019-02-12T20:24:20.760Z,102268.33
2019-02-12T20:26:47.605Z,102270.47
2019-02-12T20:29:14.474Z,102275.64
2019-02-12T20:31:41.327Z,102274.37
2019-02-12T20:34:08.279Z,102269.69
2019-02-12T20:36:35.152Z,102265.36
2019-02-12T20:39:02.030Z,102265.33
2019-02-12T20:41:30.788Z,102252.05
2019-02-12T20:43:57.593Z,102256.73
2019-02-12T20:46:25.595Z,102264.02
2019-02-12T20:48:52.334Z,102273.44
2019-02-12T20:51:19.260Z,102279.87
2019-02-12T20:53:46.220Z,102286.22
2019-02-12T20:56:13.175Z,102284.52
2019-02-12T20:58:40.200Z,102285.38
2019-02-12T21:01:07.187Z,102280.27
2019-02-12T21:03:34.086Z,102276.84
2019-02-12T21:06:01.088Z,102274.25
2019-02-12T21:08:27.970Z,102278.45
2019-02-12T21:10:55.013Z,102274.62
2019-02-12T21:13:21.947Z,102280.55
2019-02-12T21:15:48.795Z,102282.69
2019-02-12T21:18:15.711Z,102297.69
2019-02-12T21:20:42.596Z,102294.30
2019-02-12T21:23:09.557Z,102302.00
2019-02-12T21:25:36.669Z,102296.50
2019-02-12T21:28:03.582Z,102295.66
2019-02-12T21:30:30.454Z,102293.90
2019-02-12T21:32:57.312Z,102283.16
2019-02-12T21:35:24.165Z,102282.23
2019-02-12T21:37:51.026Z,102279.22
2019-02-12T21:40:19.295Z,102278.34
2019-02-12T21:42:47.151Z,102278.28
2019-02-12T21:45:32.237Z,102272.72
2019-02-12T21:47:59.145Z,102270.98
2019-02-12T21:50:26.150Z,102268.77
2019-02-12T21:52:54.309Z,102273.36
2019-02-12T21:55:21.081Z,102282.77
2019-02-12T21:57:47.921Z,102281.55
2019-02-12T22:00:14.958Z,102279.91
2019-02-12T22:02:42.468Z,102289.84
2019-02-12T22:05:11.234Z,102290.25
2019-02-12T22:07:37.975Z,102291.17
2019-02-12T22:10:07.190Z,102295.83
2019-02-12T22:12:34.345Z,102285.13
2019-02-12T22:15:01.090Z,102288.14
2019-02-12T22:17:28.068Z,102290.73
2019-02-12T22:19:55.021Z,102290.28
2019-02-12T22:22:21.806Z,102291.48
2019-02-12T22:24:48.577Z,102287.95
2019-02-12T22:27:15.411Z,102291.66
2019-02-12T22:29:42.254Z,102299.66
2019-02-12T22:32:09.022Z,102301.83
2019-02-12T22:34:35.755Z,102300.24
2019-02-12T22:37:02.615Z,102297.29
2019-02-12T22:39:29.461Z,102305.39
2019-02-12T22:41:56.309Z,102305.02
2019-02-12T22:44:23.162Z,102309.32
2019-02-12T22:46:49.951Z,102316.58
2019-02-12T22:49:17.576Z,102313.98
2019-02-12T22:51:44.548Z,102304.23
2019-02-12T22:54:11.549Z,102302.41
2019-02-12T22:56:38.402Z,102295.03
2019-02-12T22:59:05.350Z,102294.22
2019-02-12T23:01:36.833Z,102291.23
2019-02-12T23:04:04.069Z,102289.47
2019-02-12T23:06:30.956Z,102297.49
2019-02-12T23:08:58.261Z,102297.55
2019-02-12T23:11:26.594Z,102307.91
2019-02-12T23:13:53.793Z,102306.27
2019-02-12T23:16:20.689Z,102301.19
2019-02-12T23:18:48.553Z,102303.34
2019-02-12T23:21:15.524Z,102306.18
2019-02-12T23:23:42.919Z,102310.48
2019-02-12T23:26:09.932Z,102306.27
2019-02-12T23:28:36.744Z,102309.34
2019-02-12T23:31:03.620Z,102310.06
2019-02-12T23:33:30.570Z,102318.16
2019-02-12T23:35:57.344Z,102320.28
2019-02-12T23:38:24.137Z,102319.08
2019-02-12T23:40:50.980Z,102323.41
2019-02-12T23:43:17.748Z,102312.75
2019-02-12T23:45:44.727Z,102312.75
2019-02-12T23:48:14.927Z,102303.44
2019-02-12T23:50:42.168Z,102300.92
2019-02-12T23:53:09.151Z,102309.04
2019-02-12T23:55:36.037Z,102303.12
2019-02-12T23:58:06.011Z,102310.48
